sensor_id;sensor_type;location;lat;lon;timestamp;P1;durP1;ratioP1;P2;durP2;ratioP2
1106;SDS011;540;49.448;8.612;2022-11-13T00:01:59;30.90;;;14.55;;
1106;SDS011;540;49.448;8.612;2022-11-13T00:04:27;31.10;;;15.32;;
1106;SDS011;540;49.448;8.612;2022-11-13T00:06:55;36.88;;;16.33;;
1106;SDS011;540;49.448;8.612;2022-11-13T00:09:26;30.15;;;15.23;;
1106;SDS011;540;49.448;8.612;2022-11-13T00:11:53;30.70;;;14.73;;
1106;SDS011;540;49.448;8.612;2022-11-13T00:14:21;33.65;;;14.63;;
1106;SDS011;540;49.448;8.612;2022-11-13T00:16:49;29.60;;;14.18;;
1106;SDS011;540;49.448;8.612;2022-11-13T00:19:17;30.65;;;14.65;;
1106;SDS011;540;49.448;8.612;2022-11-13T00:21:44;31.23;;;14.07;;
1106;SDS011;540;49.448;8.612;2022-11-13T00:24:12;30.30;;;14.32;;
1106;SDS011;540;49.448;8.612;2022-11-13T00:26:41;30.67;;;13.50;;
1106;SDS011;540;49.448;8.612;2022-11-13T00:29:09;32.28;;;14.05;;
1106;SDS011;540;49.448;8.612;2022-11-13T00:31:37;29.05;;;13.73;;
1106;SDS011;540;49.448;8.612;2022-11-13T00:34:04;29.10;;;14.43;;
1106;SDS011;540;49.448;8.612;2022-11-13T00:36:52;27.00;;;13.95;;
1106;SDS011;540;49.448;8.612;2022-11-13T00:39:20;31.70;;;13.88;;
1106;SDS011;540;49.448;8.612;2022-11-13T00:41:49;33.75;;;13.57;;
1106;SDS011;540;49.448;8.612;2022-11-13T00:44:17;29.35;;;13.52;;
1106;SDS011;540;49.448;8.612;2022-11-13T00:46:45;25.85;;;12.82;;
1106;SDS011;540;49.448;8.612;2022-11-13T00:49:12;25.90;;;13.20;;
1106;SDS011;540;49.448;8.612;2022-11-13T00:51:41;29.23;;;13.63;;
1106;SDS011;540;49.448;8.612;2022-11-13T00:54:09;31.00;;;13.95;;
1106;SDS011;540;49.448;8.612;2022-11-13T00:56:37;37.97;;;14.35;;
1106;SDS011;540;49.448;8.612;2022-11-13T00:59:06;32.97;;;14.38;;
1106;SDS011;540;49.448;8.612;2022-11-13T01:01:33;28.60;;;14.07;;
1106;SDS011;540;49.448;8.612;2022-11-13T01:04:01;31.17;;;14.32;;
1106;SDS011;540;49.448;8.612;2022-11-13T01:06:29;28.40;;;13.65;;
1106;SDS011;540;49.448;8.612;2022-11-13T01:08:57;30.60;;;14.10;;
1106;SDS011;540;49.448;8.612;2022-11-13T01:11:26;24.88;;;11.98;;
1106;SDS011;540;49.448;8.612;2022-11-13T01:13:55;30.00;;;12.70;;
1106;SDS011;540;49.448;8.612;2022-11-13T01:16:25;26.70;;;13.05;;
1106;SDS011;540;49.448;8.612;2022-11-13T01:18:54;35.80;;;14.30;;
1106;SDS011;540;49.448;8.612;2022-11-13T01:21:24;28.90;;;13.68;;
1106;SDS011;540;49.448;8.612;2022-11-13T01:23:52;30.65;;;14.48;;
1106;SDS011;540;49.448;8.612;2022-11-13T01:26:21;27.90;;;13.30;;
1106;SDS011;540;49.448;8.612;2022-11-13T01:28:50;29.67;;;13.90;;
1106;SDS011;540;49.448;8.612;2022-11-13T01:31:19;29.95;;;13.32;;
1106;SDS011;540;49.448;8.612;2022-11-13T01:33:50;31.50;;;14.23;;
1106;SDS011;540;49.448;8.612;2022-11-13T01:36:18;25.80;;;12.55;;
1106;SDS011;540;49.448;8.612;2022-11-13T01:38:48;31.42;;;12.57;;
1106;SDS011;540;49.448;8.612;2022-11-13T01:41:16;25.95;;;11.88;;
1106;SDS011;540;49.448;8.612;2022-11-13T01:43:49;26.70;;;10.82;;
1106;SDS011;540;49.448;8.612;2022-11-13T01:46:19;32.08;;;13.68;;
1106;SDS011;540;49.448;8.612;2022-11-13T01:48:52;29.02;;;12.75;;
1106;SDS011;540;49.448;8.612;2022-11-13T01:51:25;30.02;;;13.35;;
1106;SDS011;540;49.448;8.612;2022-11-13T01:53:56;29.80;;;14.15;;
1106;SDS011;540;49.448;8.612;2022-11-13T01:56:25;32.17;;;13.05;;
1106;SDS011;540;49.448;8.612;2022-11-13T01:58:56;28.63;;;12.32;;
1106;SDS011;540;49.448;8.612;2022-11-13T02:01:29;29.73;;;12.70;;
1106;SDS011;540;49.448;8.612;2022-11-13T02:03:58;28.80;;;12.93;;
1106;SDS011;540;49.448;8.612;2022-11-13T02:06:27;26.42;;;11.98;;
1106;SDS011;540;49.448;8.612;2022-11-13T02:08:57;27.58;;;12.05;;
1106;SDS011;540;49.448;8.612;2022-11-13T02:11:24;30.45;;;13.20;;
1106;SDS011;540;49.448;8.612;2022-11-13T02:13:53;28.20;;;12.80;;
1106;SDS011;540;49.448;8.612;2022-11-13T02:16:21;26.95;;;13.43;;
1106;SDS011;540;49.448;8.612;2022-11-13T02:18:49;24.60;;;12.43;;
1106;SDS011;540;49.448;8.612;2022-11-13T02:21:24;30.95;;;14.40;;
1106;SDS011;540;49.448;8.612;2022-11-13T02:24:00;31.50;;;13.30;;
1106;SDS011;540;49.448;8.612;2022-11-13T02:26:42;33.28;;;13.30;;
1106;SDS011;540;49.448;8.612;2022-11-13T02:29:11;27.55;;;13.10;;
1106;SDS011;540;49.448;8.612;2022-11-13T02:31:38;31.27;;;13.60;;
1106;SDS011;540;49.448;8.612;2022-11-13T02:34:06;30.85;;;14.00;;
1106;SDS011;540;49.448;8.612;2022-11-13T02:36:34;35.50;;;14.40;;
1106;SDS011;540;49.448;8.612;2022-11-13T02:39:03;36.28;;;14.48;;
1106;SDS011;540;49.448;8.612;2022-11-13T02:41:36;33.53;;;15.32;;
1106;SDS011;540;49.448;8.612;2022-11-13T02:44:04;37.70;;;15.82;;
1106;SDS011;540;49.448;8.612;2022-11-13T02:46:32;38.97;;;14.90;;
1106;SDS011;540;49.448;8.612;2022-11-13T02:49:01;31.60;;;14.52;;
1106;SDS011;540;49.448;8.612;2022-11-13T02:51:29;35.33;;;15.15;;
1106;SDS011;540;49.448;8.612;2022-11-13T02:53:56;33.83;;;14.27;;
1106;SDS011;540;49.448;8.612;2022-11-13T02:56:24;78.72;;;14.80;;
1106;SDS011;540;49.448;8.612;2022-11-13T02:58:53;31.92;;;13.68;;
1106;SDS011;540;49.448;8.612;2022-11-13T03:01:21;30.75;;;13.40;;
1106;SDS011;540;49.448;8.612;2022-11-13T03:03:49;28.45;;;14.27;;
1106;SDS011;540;49.448;8.612;2022-11-13T03:06:24;26.50;;;12.82;;
1106;SDS011;540;49.448;8.612;2022-11-13T03:08:52;24.67;;;11.73;;
1106;SDS011;540;49.448;8.612;2022-11-13T03:11:19;28.65;;;12.93;;
1106;SDS011;540;49.448;8.612;2022-11-13T03:13:47;29.75;;;12.73;;
1106;SDS011;540;49.448;8.612;2022-11-13T03:16:16;25.90;;;11.98;;
1106;SDS011;540;49.448;8.612;2022-11-13T03:18:44;26.80;;;13.05;;
1106;SDS011;540;49.448;8.612;2022-11-13T03:21:13;27.73;;;11.85;;
1106;SDS011;540;49.448;8.612;2022-11-13T03:23:41;23.80;;;11.48;;
1106;SDS011;540;49.448;8.612;2022-11-13T03:26:11;25.38;;;12.00;;
1106;SDS011;540;49.448;8.612;2022-11-13T03:28:40;26.00;;;11.77;;
1106;SDS011;540;49.448;8.612;2022-11-13T03:31:08;20.95;;;10.95;;
1106;SDS011;540;49.448;8.612;2022-11-13T03:33:37;24.30;;;10.35;;
1106;SDS011;540;49.448;8.612;2022-11-13T03:36:05;24.77;;;11.70;;
1106;SDS011;540;49.448;8.612;2022-11-13T03:38:33;24.23;;;10.70;;
1106;SDS011;540;49.448;8.612;2022-11-13T03:41:01;20.05;;;9.90;;
1106;SDS011;540;49.448;8.612;2022-11-13T03:43:29;15.35;;;8.60;;
1106;SDS011;540;49.448;8.612;2022-11-13T03:45:57;19.17;;;9.88;;
1106;SDS011;540;49.448;8.612;2022-11-13T03:48:25;16.55;;;9.25;;
1106;SDS011;540;49.448;8.612;2022-11-13T03:50:54;17.13;;;8.43;;
1106;SDS011;540;49.448;8.612;2022-11-13T03:53:22;19.33;;;9.77;;
1106;SDS011;540;49.448;8.612;2022-11-13T03:55:50;15.43;;;9.13;;
1106;SDS011;540;49.448;8.612;2022-11-13T03:58:18;13.10;;;7.70;;
1106;SDS011;540;49.448;8.612;2022-11-13T04:00:47;15.15;;;8.20;;
1106;SDS011;540;49.448;8.612;2022-11-13T04:03:15;18.10;;;8.93;;
1106;SDS011;540;49.448;8.612;2022-11-13T04:05:43;15.65;;;8.70;;
1106;SDS011;540;49.448;8.612;2022-11-13T04:08:12;16.02;;;8.23;;
1106;SDS011;540;49.448;8.612;2022-11-13T04:10:40;17.95;;;9.35;;
1106;SDS011;540;49.448;8.612;2022-11-13T04:13:08;16.42;;;8.77;;
1106;SDS011;540;49.448;8.612;2022-11-13T04:15:36;19.48;;;9.32;;
1106;SDS011;540;49.448;8.612;2022-11-13T04:18:04;17.67;;;9.00;;
1106;SDS011;540;49.448;8.612;2022-11-13T04:20:32;11.95;;;7.13;;
1106;SDS011;540;49.448;8.612;2022-11-13T04:23:00;16.10;;;8.48;;
1106;SDS011;540;49.448;8.612;2022-11-13T04:25:34;14.52;;;8.25;;
1106;SDS011;540;49.448;8.612;2022-11-13T04:28:01;15.43;;;8.32;;
1106;SDS011;540;49.448;8.612;2022-11-13T04:30:29;16.08;;;9.02;;
1106;SDS011;540;49.448;8.612;2022-11-13T04:32:57;17.10;;;8.38;;
1106;SDS011;540;49.448;8.612;2022-11-13T04:35:25;19.63;;;8.82;;
1106;SDS011;540;49.448;8.612;2022-11-13T04:37:52;20.17;;;8.85;;
1106;SDS011;540;49.448;8.612;2022-11-13T04:40:20;16.50;;;8.65;;
1106;SDS011;540;49.448;8.612;2022-11-13T04:42:49;16.23;;;9.40;;
1106;SDS011;540;49.448;8.612;2022-11-13T04:45:16;14.32;;;8.45;;
1106;SDS011;540;49.448;8.612;2022-11-13T04:47:46;22.38;;;9.98;;
1106;SDS011;540;49.448;8.612;2022-11-13T04:50:15;17.23;;;9.52;;
1106;SDS011;540;49.448;8.612;2022-11-13T04:52:43;17.00;;;9.88;;
1106;SDS011;540;49.448;8.612;2022-11-13T04:55:11;18.55;;;9.50;;
1106;SDS011;540;49.448;8.612;2022-11-13T04:57:39;19.08;;;11.10;;
1106;SDS011;540;49.448;8.612;2022-11-13T05:00:09;23.77;;;9.25;;
1106;SDS011;540;49.448;8.612;2022-11-13T05:02:38;21.67;;;8.68;;
1106;SDS011;540;49.448;8.612;2022-11-13T05:05:06;18.42;;;8.40;;
1106;SDS011;540;49.448;8.612;2022-11-13T05:07:35;17.90;;;8.93;;
1106;SDS011;540;49.448;8.612;2022-11-13T05:10:03;15.73;;;9.80;;
1106;SDS011;540;49.448;8.612;2022-11-13T05:12:32;18.92;;;10.70;;
1106;SDS011;540;49.448;8.612;2022-11-13T05:14:59;20.00;;;8.70;;
1106;SDS011;540;49.448;8.612;2022-11-13T05:17:28;20.10;;;11.10;;
1106;SDS011;540;49.448;8.612;2022-11-13T05:19:56;20.02;;;10.63;;
1106;SDS011;540;49.448;8.612;2022-11-13T05:22:24;20.77;;;8.77;;
1106;SDS011;540;49.448;8.612;2022-11-13T05:24:52;20.13;;;9.85;;
1106;SDS011;540;49.448;8.612;2022-11-13T05:27:19;33.00;;;9.02;;
1106;SDS011;540;49.448;8.612;2022-11-13T05:29:47;15.63;;;8.48;;
1106;SDS011;540;49.448;8.612;2022-11-13T05:32:15;15.13;;;8.63;;
1106;SDS011;540;49.448;8.612;2022-11-13T05:34:44;16.10;;;8.93;;
1106;SDS011;540;49.448;8.612;2022-11-13T05:37:12;17.80;;;8.85;;
1106;SDS011;540;49.448;8.612;2022-11-13T05:39:39;16.20;;;9.40;;
1106;SDS011;540;49.448;8.612;2022-11-13T05:42:07;19.83;;;9.80;;
1106;SDS011;540;49.448;8.612;2022-11-13T05:44:35;19.40;;;9.45;;
1106;SDS011;540;49.448;8.612;2022-11-13T05:47:02;29.40;;;11.43;;
1106;SDS011;540;49.448;8.612;2022-11-13T05:49:30;15.48;;;9.00;;
1106;SDS011;540;49.448;8.612;2022-11-13T05:51:59;19.50;;;8.93;;
1106;SDS011;540;49.448;8.612;2022-11-13T05:54:27;22.55;;;10.02;;
1106;SDS011;540;49.448;8.612;2022-11-13T05:56:55;26.25;;;10.57;;
1106;SDS011;540;49.448;8.612;2022-11-13T05:59:22;18.35;;;9.85;;
1106;SDS011;540;49.448;8.612;2022-11-13T06:01:50;19.25;;;10.40;;
1106;SDS011;540;49.448;8.612;2022-11-13T06:04:18;23.98;;;11.35;;
1106;SDS011;540;49.448;8.612;2022-11-13T06:06:46;22.38;;;10.45;;
1106;SDS011;540;49.448;8.612;2022-11-13T06:09:15;19.73;;;10.10;;
1106;SDS011;540;49.448;8.612;2022-11-13T06:11:43;23.17;;;9.52;;
1106;SDS011;540;49.448;8.612;2022-11-13T06:14:11;17.63;;;9.15;;
1106;SDS011;540;49.448;8.612;2022-11-13T06:16:38;15.10;;;8.48;;
1106;SDS011;540;49.448;8.612;2022-11-13T06:19:08;16.92;;;9.05;;
1106;SDS011;540;49.448;8.612;2022-11-13T06:21:37;19.77;;;8.95;;
1106;SDS011;540;49.448;8.612;2022-11-13T06:24:06;17.45;;;8.18;;
1106;SDS011;540;49.448;8.612;2022-11-13T06:26:38;14.57;;;8.13;;
1106;SDS011;540;49.448;8.612;2022-11-13T06:29:08;16.77;;;9.50;;
1106;SDS011;540;49.448;8.612;2022-11-13T06:31:37;17.25;;;9.02;;
1106;SDS011;540;49.448;8.612;2022-11-13T06:34:05;15.30;;;8.77;;
1106;SDS011;540;49.448;8.612;2022-11-13T06:36:34;14.93;;;9.00;;
1106;SDS011;540;49.448;8.612;2022-11-13T06:39:04;14.88;;;8.13;;
1106;SDS011;540;49.448;8.612;2022-11-13T06:41:32;16.73;;;9.00;;
1106;SDS011;540;49.448;8.612;2022-11-13T06:44:02;17.10;;;8.88;;
1106;SDS011;540;49.448;8.612;2022-11-13T06:46:30;16.35;;;9.15;;
1106;SDS011;540;49.448;8.612;2022-11-13T06:48:57;17.27;;;9.20;;
1106;SDS011;540;49.448;8.612;2022-11-13T06:51:26;16.60;;;9.10;;
1106;SDS011;540;49.448;8.612;2022-11-13T06:53:55;18.55;;;8.63;;
1106;SDS011;540;49.448;8.612;2022-11-13T06:56:24;16.65;;;8.77;;
1106;SDS011;540;49.448;8.612;2022-11-13T06:58:52;15.65;;;8.88;;
1106;SDS011;540;49.448;8.612;2022-11-13T07:01:23;17.50;;;8.35;;
1106;SDS011;540;49.448;8.612;2022-11-13T07:03:52;17.83;;;9.38;;
1106;SDS011;540;49.448;8.612;2022-11-13T07:06:21;17.63;;;9.43;;
1106;SDS011;540;49.448;8.612;2022-11-13T07:08:50;14.65;;;7.57;;
1106;SDS011;540;49.448;8.612;2022-11-13T07:11:19;12.07;;;7.65;;
1106;SDS011;540;49.448;8.612;2022-11-13T07:13:47;20.92;;;9.25;;
1106;SDS011;540;49.448;8.612;2022-11-13T07:16:15;14.63;;;8.35;;
1106;SDS011;540;49.448;8.612;2022-11-13T07:18:47;20.73;;;8.60;;
1106;SDS011;540;49.448;8.612;2022-11-13T07:21:16;15.27;;;9.50;;
1106;SDS011;540;49.448;8.612;2022-11-13T07:23:46;15.25;;;8.90;;
1106;SDS011;540;49.448;8.612;2022-11-13T07:26:14;15.07;;;8.40;;
1106;SDS011;540;49.448;8.612;2022-11-13T07:28:43;15.90;;;8.65;;
1106;SDS011;540;49.448;8.612;2022-11-13T07:31:11;18.38;;;9.23;;
1106;SDS011;540;49.448;8.612;2022-11-13T07:33:40;14.68;;;8.60;;
1106;SDS011;540;49.448;8.612;2022-11-13T07:36:09;25.00;;;10.23;;
1106;SDS011;540;49.448;8.612;2022-11-13T07:38:37;14.90;;;9.18;;
1106;SDS011;540;49.448;8.612;2022-11-13T07:41:05;14.43;;;8.38;;
1106;SDS011;540;49.448;8.612;2022-11-13T07:43:33;14.77;;;8.75;;
1106;SDS011;540;49.448;8.612;2022-11-13T07:46:01;16.33;;;8.23;;
1106;SDS011;540;49.448;8.612;2022-11-13T07:48:29;16.23;;;7.55;;
1106;SDS011;540;49.448;8.612;2022-11-13T07:50:58;13.50;;;7.18;;
1106;SDS011;540;49.448;8.612;2022-11-13T07:53:28;14.05;;;7.40;;
1106;SDS011;540;49.448;8.612;2022-11-13T07:55:58;10.25;;;6.47;;
1106;SDS011;540;49.448;8.612;2022-11-13T07:58:27;11.10;;;6.97;;
1106;SDS011;540;49.448;8.612;2022-11-13T08:00:59;11.25;;;7.32;;
1106;SDS011;540;49.448;8.612;2022-11-13T08:03:29;13.07;;;7.60;;
1106;SDS011;540;49.448;8.612;2022-11-13T08:06:00;12.52;;;7.32;;
1106;SDS011;540;49.448;8.612;2022-11-13T08:08:31;11.82;;;6.90;;
1106;SDS011;540;49.448;8.612;2022-11-13T08:11:01;13.30;;;6.45;;
1106;SDS011;540;49.448;8.612;2022-11-13T08:13:30;17.90;;;7.45;;
1106;SDS011;540;49.448;8.612;2022-11-13T08:15:59;12.48;;;7.57;;
1106;SDS011;540;49.448;8.612;2022-11-13T08:18:27;17.00;;;9.50;;
1106;SDS011;540;49.448;8.612;2022-11-13T08:20:59;12.77;;;7.50;;
1106;SDS011;540;49.448;8.612;2022-11-13T08:23:28;15.80;;;6.82;;
1106;SDS011;540;49.448;8.612;2022-11-13T08:26:01;19.70;;;8.57;;
1106;SDS011;540;49.448;8.612;2022-11-13T08:28:30;27.38;;;11.85;;
1106;SDS011;540;49.448;8.612;2022-11-13T08:30:58;27.60;;;13.25;;
1106;SDS011;540;49.448;8.612;2022-11-13T08:33:26;27.15;;;12.73;;
1106;SDS011;540;49.448;8.612;2022-11-13T08:35:54;30.88;;;13.77;;
1106;SDS011;540;49.448;8.612;2022-11-13T08:38:22;24.40;;;11.73;;
1106;SDS011;540;49.448;8.612;2022-11-13T08:40:51;32.83;;;13.48;;
1106;SDS011;540;49.448;8.612;2022-11-13T08:43:23;30.08;;;12.52;;
1106;SDS011;540;49.448;8.612;2022-11-13T08:45:51;26.85;;;12.60;;
1106;SDS011;540;49.448;8.612;2022-11-13T08:48:19;27.25;;;12.85;;
1106;SDS011;540;49.448;8.612;2022-11-13T08:50:49;41.40;;;16.38;;
1106;SDS011;540;49.448;8.612;2022-11-13T08:53:18;49.13;;;18.23;;
1106;SDS011;540;49.448;8.612;2022-11-13T08:55:45;45.40;;;18.17;;
1106;SDS011;540;49.448;8.612;2022-11-13T08:58:13;42.00;;;17.73;;
1106;SDS011;540;49.448;8.612;2022-11-13T09:00:42;30.70;;;15.00;;
1106;SDS011;540;49.448;8.612;2022-11-13T09:03:10;24.60;;;12.23;;
1106;SDS011;540;49.448;8.612;2022-11-13T09:05:38;32.13;;;13.48;;
1106;SDS011;540;49.448;8.612;2022-11-13T09:08:06;31.42;;;16.00;;
1106;SDS011;540;49.448;8.612;2022-11-13T09:10:35;30.20;;;14.82;;
1106;SDS011;540;49.448;8.612;2022-11-13T09:13:03;26.10;;;14.50;;
1106;SDS011;540;49.448;8.612;2022-11-13T09:15:35;28.25;;;14.23;;
1106;SDS011;540;49.448;8.612;2022-11-13T09:18:05;30.35;;;13.07;;
1106;SDS011;540;49.448;8.612;2022-11-13T09:20:33;26.13;;;12.88;;
1106;SDS011;540;49.448;8.612;2022-11-13T09:23:02;25.20;;;13.43;;
1106;SDS011;540;49.448;8.612;2022-11-13T09:25:30;25.35;;;13.57;;
1106;SDS011;540;49.448;8.612;2022-11-13T09:28:03;27.48;;;15.07;;
1106;SDS011;540;49.448;8.612;2022-11-13T09:30:32;14.38;;;8.98;;
1106;SDS011;540;49.448;8.612;2022-11-13T09:33:00;19.85;;;10.07;;
1106;SDS011;540;49.448;8.612;2022-11-13T09:35:29;18.58;;;10.05;;
1106;SDS011;540;49.448;8.612;2022-11-13T09:38:02;20.65;;;13.05;;
1106;SDS011;540;49.448;8.612;2022-11-13T09:40:38;23.33;;;13.17;;
1106;SDS011;540;49.448;8.612;2022-11-13T09:43:13;15.38;;;8.93;;
1106;SDS011;540;49.448;8.612;2022-11-13T09:45:49;13.05;;;7.72;;
1106;SDS011;540;49.448;8.612;2022-11-13T09:48:24;19.27;;;10.82;;
1106;SDS011;540;49.448;8.612;2022-11-13T09:50:59;20.08;;;10.00;;
1106;SDS011;540;49.448;8.612;2022-11-13T09:53:32;16.27;;;9.82;;
1106;SDS011;540;49.448;8.612;2022-11-13T09:56:03;15.30;;;9.05;;
1106;SDS011;540;49.448;8.612;2022-11-13T09:58:44;16.55;;;8.95;;
1106;SDS011;540;49.448;8.612;2022-11-13T10:01:19;15.57;;;9.02;;
1106;SDS011;540;49.448;8.612;2022-11-13T10:03:52;31.80;;;13.32;;
1106;SDS011;540;49.448;8.612;2022-11-13T10:06:34;16.08;;;10.18;;
1106;SDS011;540;49.448;8.612;2022-11-13T10:09:22;16.98;;;9.35;;
1106;SDS011;540;49.448;8.612;2022-11-13T10:11:56;14.60;;;8.52;;
1106;SDS011;540;49.448;8.612;2022-11-13T10:14:28;13.70;;;8.52;;
1106;SDS011;540;49.448;8.612;2022-11-13T10:17:01;13.00;;;7.70;;
1106;SDS011;540;49.448;8.612;2022-11-13T10:19:35;12.70;;;7.82;;
1106;SDS011;540;49.448;8.612;2022-11-13T10:22:13;17.15;;;9.25;;
1106;SDS011;540;49.448;8.612;2022-11-13T10:25:01;20.83;;;10.93;;
1106;SDS011;540;49.448;8.612;2022-11-13T10:27:36;20.17;;;10.73;;
1106;SDS011;540;49.448;8.612;2022-11-13T10:30:10;22.02;;;11.13;;
1106;SDS011;540;49.448;8.612;2022-11-13T10:32:41;26.10;;;11.68;;
1106;SDS011;540;49.448;8.612;2022-11-13T10:35:21;23.35;;;12.07;;
1106;SDS011;540;49.448;8.612;2022-11-13T10:38:00;24.30;;;12.70;;
1106;SDS011;540;49.448;8.612;2022-11-13T10:40:34;24.40;;;13.02;;
1106;SDS011;540;49.448;8.612;2022-11-13T10:43:04;24.63;;;13.02;;
1106;SDS011;540;49.448;8.612;2022-11-13T10:45:33;19.95;;;10.75;;
1106;SDS011;540;49.448;8.612;2022-11-13T10:48:01;20.38;;;12.18;;
1106;SDS011;540;49.448;8.612;2022-11-13T10:50:30;23.20;;;12.25;;
1106;SDS011;540;49.448;8.612;2022-11-13T10:53:00;19.70;;;10.43;;
1106;SDS011;540;49.448;8.612;2022-11-13T10:55:33;19.40;;;10.65;;
1106;SDS011;540;49.448;8.612;2022-11-13T10:58:10;16.98;;;9.80;;
1106;SDS011;540;49.448;8.612;2022-11-13T11:00:40;16.08;;;10.68;;
1106;SDS011;540;49.448;8.612;2022-11-13T11:03:13;18.23;;;11.65;;
1106;SDS011;540;49.448;8.612;2022-11-13T11:05:52;18.20;;;11.35;;
1106;SDS011;540;49.448;8.612;2022-11-13T11:08:24;20.25;;;11.57;;
1106;SDS011;540;49.448;8.612;2022-11-13T11:10:57;18.65;;;10.63;;
1106;SDS011;540;49.448;8.612;2022-11-13T11:13:44;19.23;;;10.43;;
1106;SDS011;540;49.448;8.612;2022-11-13T11:16:15;25.58;;;12.20;;
1106;SDS011;540;49.448;8.612;2022-11-13T11:18:46;27.25;;;14.45;;
1106;SDS011;540;49.448;8.612;2022-11-13T11:21:20;29.50;;;14.45;;
1106;SDS011;540;49.448;8.612;2022-11-13T11:23:55;25.02;;;13.90;;
1106;SDS011;540;49.448;8.612;2022-11-13T11:26:28;28.95;;;14.90;;
1106;SDS011;540;49.448;8.612;2022-11-13T11:29:07;24.38;;;13.52;;
1106;SDS011;540;49.448;8.612;2022-11-13T11:31:43;25.77;;;14.05;;
1106;SDS011;540;49.448;8.612;2022-11-13T11:34:18;29.08;;;14.75;;
1106;SDS011;540;49.448;8.612;2022-11-13T11:36:53;26.55;;;13.85;;
1106;SDS011;540;49.448;8.612;2022-11-13T11:39:28;27.65;;;13.90;;
1106;SDS011;540;49.448;8.612;2022-11-13T11:42:08;25.08;;;14.23;;
1106;SDS011;540;49.448;8.612;2022-11-13T11:44:44;23.55;;;14.73;;
1106;SDS011;540;49.448;8.612;2022-11-13T11:47:23;18.92;;;12.25;;
1106;SDS011;540;49.448;8.612;2022-11-13T11:49:51;20.10;;;12.90;;
1106;SDS011;540;49.448;8.612;2022-11-13T11:52:23;19.58;;;12.20;;
1106;SDS011;540;49.448;8.612;2022-11-13T11:55:04;19.38;;;11.05;;
1106;SDS011;540;49.448;8.612;2022-11-13T11:57:47;18.50;;;10.98;;
1106;SDS011;540;49.448;8.612;2022-11-13T12:00:20;19.77;;;12.02;;
1106;SDS011;540;49.448;8.612;2022-11-13T12:02:56;18.48;;;11.18;;
1106;SDS011;540;49.448;8.612;2022-11-13T12:05:39;18.85;;;11.45;;
1106;SDS011;540;49.448;8.612;2022-11-13T12:08:16;17.55;;;10.45;;
1106;SDS011;540;49.448;8.612;2022-11-13T12:10:55;23.63;;;12.43;;
1106;SDS011;540;49.448;8.612;2022-11-13T12:13:28;72.93;;;32.58;;
1106;SDS011;540;49.448;8.612;2022-11-13T12:16:02;22.25;;;13.60;;
1106;SDS011;540;49.448;8.612;2022-11-13T12:18:36;21.70;;;13.00;;
1106;SDS011;540;49.448;8.612;2022-11-13T12:21:18;25.08;;;13.90;;
1106;SDS011;540;49.448;8.612;2022-11-13T12:27:00;20.60;;;12.65;;
1106;SDS011;540;49.448;8.612;2022-11-13T12:29:44;20.05;;;12.52;;
1106;SDS011;540;49.448;8.612;2022-11-13T12:32:25;23.02;;;13.65;;
1106;SDS011;540;49.448;8.612;2022-11-13T12:35:03;25.80;;;13.95;;
1106;SDS011;540;49.448;8.612;2022-11-13T12:37:37;25.48;;;14.40;;
1106;SDS011;540;49.448;8.612;2022-11-13T12:40:13;29.45;;;16.02;;
1106;SDS011;540;49.448;8.612;2022-11-13T12:42:47;28.95;;;16.77;;
1106;SDS011;540;49.448;8.612;2022-11-13T12:45:20;35.38;;;18.42;;
1106;SDS011;540;49.448;8.612;2022-11-13T12:47:53;19.75;;;12.50;;
1106;SDS011;540;49.448;8.612;2022-11-13T12:50:24;19.45;;;12.27;;
1106;SDS011;540;49.448;8.612;2022-11-13T12:52:58;19.45;;;11.60;;
1106;SDS011;540;49.448;8.612;2022-11-13T12:55:28;16.33;;;11.65;;
1106;SDS011;540;49.448;8.612;2022-11-13T12:58:04;15.18;;;11.13;;
1106;SDS011;540;49.448;8.612;2022-11-13T13:00:35;28.30;;;15.60;;
1106;SDS011;540;49.448;8.612;2022-11-13T13:03:07;36.30;;;25.38;;
1106;SDS011;540;49.448;8.612;2022-11-13T13:05:56;20.65;;;15.50;;
1106;SDS011;540;49.448;8.612;2022-11-13T13:08:41;15.93;;;11.50;;
1106;SDS011;540;49.448;8.612;2022-11-13T13:11:16;19.73;;;14.48;;
1106;SDS011;540;49.448;8.612;2022-11-13T13:13:52;18.38;;;11.25;;
1106;SDS011;540;49.448;8.612;2022-11-13T13:16:34;16.17;;;11.15;;
1106;SDS011;540;49.448;8.612;2022-11-13T13:19:07;10.57;;;8.75;;
1106;SDS011;540;49.448;8.612;2022-11-13T13:21:49;29.30;;;21.58;;
1106;SDS011;540;49.448;8.612;2022-11-13T13:24:30;15.05;;;10.45;;
1106;SDS011;540;49.448;8.612;2022-11-13T13:27:01;15.60;;;12.50;;
1106;SDS011;540;49.448;8.612;2022-11-13T13:29:47;10.83;;;8.57;;
1106;SDS011;540;49.448;8.612;2022-11-13T13:32:16;12.60;;;8.18;;
1106;SDS011;540;49.448;8.612;2022-11-13T13:34:52;9.40;;;8.27;;
1106;SDS011;540;49.448;8.612;2022-11-13T13:37:29;10.70;;;9.05;;
1106;SDS011;540;49.448;8.612;2022-11-13T13:40:08;9.98;;;7.85;;
1106;SDS011;540;49.448;8.612;2022-11-13T13:42:46;9.57;;;8.15;;
1106;SDS011;540;49.448;8.612;2022-11-13T13:45:26;13.75;;;8.30;;
1106;SDS011;540;49.448;8.612;2022-11-13T13:48:01;12.85;;;11.40;;
1106;SDS011;540;49.448;8.612;2022-11-13T13:50:38;15.02;;;10.10;;
1106;SDS011;540;49.448;8.612;2022-11-13T13:53:10;12.10;;;9.65;;
1106;SDS011;540;49.448;8.612;2022-11-13T13:55:44;10.07;;;8.80;;
1106;SDS011;540;49.448;8.612;2022-11-13T13:58:15;10.13;;;8.57;;
1106;SDS011;540;49.448;8.612;2022-11-13T14:00:54;8.50;;;7.60;;
1106;SDS011;540;49.448;8.612;2022-11-13T14:03:43;9.07;;;8.00;;
1106;SDS011;540;49.448;8.612;2022-11-13T14:06:17;11.38;;;9.40;;
1106;SDS011;540;49.448;8.612;2022-11-13T14:08:46;12.02;;;8.73;;
1106;SDS011;540;49.448;8.612;2022-11-13T14:11:15;11.32;;;9.70;;
1106;SDS011;540;49.448;8.612;2022-11-13T14:13:44;14.32;;;10.70;;
1106;SDS011;540;49.448;8.612;2022-11-13T14:16:13;14.60;;;9.57;;
1106;SDS011;540;49.448;8.612;2022-11-13T14:18:41;11.55;;;8.38;;
1106;SDS011;540;49.448;8.612;2022-11-13T14:21:10;12.02;;;9.13;;
1106;SDS011;540;49.448;8.612;2022-11-13T14:23:42;11.52;;;8.38;;
1106;SDS011;540;49.448;8.612;2022-11-13T14:26:11;13.23;;;8.95;;
1106;SDS011;540;49.448;8.612;2022-11-13T14:28:43;15.13;;;9.88;;
1106;SDS011;540;49.448;8.612;2022-11-13T14:31:25;12.75;;;8.60;;
1106;SDS011;540;49.448;8.612;2022-11-13T14:33:55;12.45;;;8.45;;
1106;SDS011;540;49.448;8.612;2022-11-13T14:36:26;17.15;;;9.93;;
1106;SDS011;540;49.448;8.612;2022-11-13T14:38:56;13.43;;;9.10;;
1106;SDS011;540;49.448;8.612;2022-11-13T14:41:27;14.52;;;9.48;;
1106;SDS011;540;49.448;8.612;2022-11-13T14:44:00;13.57;;;9.55;;
1106;SDS011;540;49.448;8.612;2022-11-13T14:46:30;12.73;;;8.90;;
1106;SDS011;540;49.448;8.612;2022-11-13T14:49:02;15.57;;;10.18;;
1106;SDS011;540;49.448;8.612;2022-11-13T14:51:31;17.63;;;11.18;;
1106;SDS011;540;49.448;8.612;2022-11-13T14:54:00;16.70;;;10.93;;
1106;SDS011;540;49.448;8.612;2022-11-13T14:56:34;14.63;;;10.15;;
1106;SDS011;540;49.448;8.612;2022-11-13T14:59:06;17.20;;;10.73;;
1106;SDS011;540;49.448;8.612;2022-11-13T15:01:53;20.17;;;12.88;;
1106;SDS011;540;49.448;8.612;2022-11-13T15:04:21;16.95;;;11.02;;
1106;SDS011;540;49.448;8.612;2022-11-13T15:06:49;15.73;;;9.77;;
1106;SDS011;540;49.448;8.612;2022-11-13T15:09:21;14.35;;;9.95;;
1106;SDS011;540;49.448;8.612;2022-11-13T15:11:50;14.77;;;9.98;;
1106;SDS011;540;49.448;8.612;2022-11-13T15:14:19;16.40;;;10.18;;
1106;SDS011;540;49.448;8.612;2022-11-13T15:16:47;15.57;;;10.07;;
1106;SDS011;540;49.448;8.612;2022-11-13T15:19:19;16.40;;;10.68;;
1106;SDS011;540;49.448;8.612;2022-11-13T15:21:55;16.52;;;11.35;;
1106;SDS011;540;49.448;8.612;2022-11-13T15:24:43;17.35;;;11.23;;
1106;SDS011;540;49.448;8.612;2022-11-13T15:27:12;19.38;;;11.43;;
1106;SDS011;540;49.448;8.612;2022-11-13T15:29:41;14.60;;;10.27;;
1106;SDS011;540;49.448;8.612;2022-11-13T15:32:10;39.40;;;21.13;;
1106;SDS011;540;49.448;8.612;2022-11-13T15:34:40;17.90;;;10.77;;